createdAt,value
2018-10-11T00:01:35.325Z,79.96
2018-10-11T00:04:05.039Z,79.89
2018-10-11T00:06:35.077Z,79.53
2018-10-11T00:09:05.988Z,78.96
2018-10-11T00:11:35.684Z,79.00
2018-10-11T00:14:05.368Z,78.09
2018-10-11T00:16:35.044Z,79.46
2018-10-11T00:19:05.144Z,77.69
2018-10-11T00:21:34.810Z,79.16
2018-10-11T00:24:04.509Z,78.08
2018-10-11T00:26:34.183Z,82.18
2018-10-11T00:29:04.858Z,79.40
2018-10-11T00:31:34.591Z,78.33
2018-10-11T00:34:04.264Z,79.99
2018-10-11T00:36:33.879Z,80.40
2018-10-11T00:39:06.606Z,80.03
2018-10-11T00:41:36.354Z,80.78
2018-10-11T00:44:05.992Z,78.18
2018-10-11T00:46:36.150Z,78.36
2018-10-11T00:49:05.885Z,78.08
2018-10-11T00:51:35.520Z,81.09
2018-10-11T00:54:05.155Z,81.57
2018-10-11T00:56:34.770Z,80.49
2018-10-11T00:59:05.064Z,77.78
2018-10-11T01:01:35.084Z,75.87
2018-10-11T01:04:04.735Z,74.98
2018-10-11T01:06:34.427Z,77.49
2018-10-11T01:09:04.570Z,78.09
2018-10-11T01:11:34.914Z,79.70
2018-10-11T01:14:05.375Z,81.14
2018-10-11T01:16:35.184Z,79.30
2018-10-11T01:19:04.879Z,80.08
2018-10-11T01:21:34.555Z,80.51
2018-10-11T01:24:04.300Z,83.59
2018-10-11T01:26:34.130Z,83.90
2018-10-11T01:29:03.891Z,80.79
2018-10-11T01:31:34.102Z,80.26
2018-10-11T01:34:03.844Z,80.77
2018-10-11T01:36:33.936Z,79.88
2018-10-11T01:39:09.888Z,78.99
2018-10-11T01:41:39.809Z,79.91
2018-10-11T01:44:09.655Z,78.90
2018-10-11T01:46:39.346Z,78.13
2018-10-11T01:49:09.007Z,80.31
2018-10-11T01:51:38.715Z,83.02
2018-10-11T01:54:08.404Z,81.49
2018-10-11T01:56:38.780Z,81.52
2018-10-11T01:59:08.496Z,80.12
2018-10-11T02:01:38.364Z,79.32
2018-10-11T02:04:08.512Z,79.52
2018-10-11T02:06:38.271Z,81.06
2018-10-11T02:09:07.983Z,82.97
2018-10-11T02:11:37.660Z,82.86
2018-10-11T02:14:08.258Z,81.54
2018-10-11T02:16:37.990Z,81.48
2018-10-11T02:19:07.664Z,82.01
2018-10-11T02:21:37.324Z,82.79
2018-10-11T02:24:08.361Z,80.83
2018-10-11T02:26:38.094Z,79.66
2018-10-11T02:29:09.579Z,83.99
2018-10-11T02:31:39.385Z,82.75
2018-10-11T02:34:09.177Z,82.18
2018-10-11T02:36:39.042Z,81.71
2018-10-11T02:39:10.504Z,82.50
2018-10-11T02:41:40.369Z,81.87
2018-10-11T02:44:10.052Z,83.80
2018-10-11T02:46:40.693Z,84.53
2018-10-11T02:49:10.480Z,82.37
2018-10-11T02:51:40.129Z,82.44
2018-10-11T02:54:09.770Z,82.39
2018-10-11T02:56:39.839Z,80.93
2018-10-11T02:59:37.383Z,81.99
2018-10-11T03:02:12.816Z,81.34
2018-10-11T03:04:43.845Z,82.22
2018-10-11T03:07:13.668Z,82.94
2018-10-11T03:09:43.924Z,81.79
2018-10-11T03:12:14.425Z,80.23
2018-10-11T03:14:45.564Z,79.41
2018-10-11T03:17:15.411Z,82.07
2018-10-11T03:19:45.091Z,82.44
2018-10-11T03:22:14.823Z,83.50
2018-10-11T03:24:44.589Z,83.02
2018-10-11T03:27:14.311Z,82.39
2018-10-11T03:29:43.967Z,82.06
2018-10-11T03:32:14.379Z,82.11
2018-10-11T03:34:44.138Z,83.58
2018-10-11T03:37:13.855Z,83.37
2018-10-11T03:39:43.455Z,82.72
2018-10-11T03:42:13.923Z,82.69
2018-10-11T03:44:48.642Z,82.42
2018-10-11T03:47:18.946Z,81.99
2018-10-11T03:49:49.512Z,82.54
2018-10-11T03:52:19.242Z,82.65
2018-10-11T03:54:48.956Z,82.72
2018-10-11T03:57:19.528Z,82.51
2018-10-11T03:59:49.299Z,81.82
2018-10-11T04:02:18.955Z,83.37
2018-10-11T04:04:50.023Z,82.07
2018-10-11T04:07:19.804Z,82.50
2018-10-11T04:09:49.439Z,80.51
2018-10-11T04:12:19.198Z,80.76
2018-10-11T04:14:50.248Z,80.52
2018-10-11T04:17:20.172Z,78.57
2018-10-11T04:19:49.834Z,79.78
2018-10-11T04:22:19.462Z,80.90
2018-10-11T04:24:49.147Z,81.36
2018-10-11T04:27:18.905Z,80.39
2018-10-11T04:29:48.522Z,79.67
2018-10-11T04:32:19.701Z,80.29
2018-10-11T04:34:49.480Z,81.54
2018-10-11T04:37:19.174Z,83.67
2018-10-11T04:39:48.887Z,83.79
2018-10-11T04:42:18.573Z,83.10
2018-10-11T04:44:48.291Z,85.73
2018-10-11T04:47:17.952Z,84.52
2018-10-11T04:49:48.284Z,84.57
2018-10-11T04:52:18.131Z,82.43
2018-10-11T04:54:48.523Z,82.32
2018-10-11T04:57:18.426Z,82.17
2018-10-11T04:59:48.181Z,84.91
2018-10-11T05:02:17.730Z,83.76
2018-10-11T05:04:47.443Z,86.36
2018-10-11T05:07:17.549Z,85.02
2018-10-11T05:09:47.267Z,86.30
2018-10-11T05:12:16.975Z,85.50
2018-10-11T05:14:46.775Z,84.13
2018-10-11T05:17:16.569Z,83.02
2018-10-11T05:19:46.170Z,85.95
2018-10-11T05:22:15.881Z,85.60
2018-10-11T05:24:47.111Z,85.11
2018-10-11T05:27:16.908Z,83.39
2018-10-11T05:29:47.931Z,84.56
2018-10-11T05:32:18.674Z,83.94
2018-10-11T05:37:31.233Z,83.23
2018-10-11T05:40:01.066Z,83.02
2018-10-11T05:42:31.001Z,82.97
2018-10-11T05:45:08.699Z,82.91
2018-10-11T05:47:39.142Z,81.39
2018-10-11T05:50:09.311Z,80.97
2018-10-11T05:52:39.184Z,83.27
2018-10-11T05:55:09.039Z,82.38
2018-10-11T05:57:39.454Z,83.40
2018-10-11T06:00:10.751Z,84.00
2018-10-11T06:03:02.704Z,83.94
2018-10-11T06:05:32.636Z,82.51
2018-10-11T06:08:04.055Z,83.21
2018-10-11T06:10:37.241Z,81.37
2018-10-11T06:13:08.283Z,81.40
2018-10-11T06:15:38.370Z,82.51
2018-10-11T06:18:08.702Z,81.50
2018-10-11T06:20:38.533Z,81.96
2018-10-11T06:23:08.306Z,83.83
2018-10-11T06:25:38.013Z,85.00
2018-10-11T06:28:08.990Z,83.21
2018-10-11T06:30:39.356Z,83.64
2018-10-11T06:33:09.035Z,82.65
2018-10-11T06:35:39.311Z,83.12
2018-10-11T06:38:09.377Z,82.62
2018-10-11T06:40:39.653Z,81.40
2018-10-11T06:43:09.433Z,82.68
2018-10-11T06:45:39.207Z,83.25
2018-10-11T06:48:10.820Z,82.36
2018-10-11T06:50:42.147Z,81.91
2018-10-11T06:53:12.057Z,83.80
2018-10-11T06:55:41.770Z,84.74
2018-10-11T06:58:11.419Z,85.19
2018-10-11T07:00:41.206Z,84.16
2018-10-11T07:03:10.964Z,84.15
2018-10-11T07:05:40.642Z,84.34
2018-10-11T07:08:10.541Z,86.06
2018-10-11T07:10:40.256Z,85.04
2018-10-11T07:13:10.455Z,85.62
2018-10-11T07:15:40.543Z,83.75
2018-10-11T07:18:10.247Z,83.74
2018-10-11T07:20:40.328Z,84.97
2018-10-11T07:23:10.458Z,83.99
2018-10-11T07:25:40.152Z,84.65
2018-10-11T07:28:09.812Z,83.75
2018-10-11T07:30:39.620Z,84.17
2018-10-11T07:33:09.499Z,86.73
2018-10-11T07:35:39.229Z,87.46
2018-10-11T07:38:08.944Z,84.41
2018-10-11T07:40:38.958Z,85.14
2018-10-11T07:43:08.626Z,83.66
2018-10-11T07:45:38.679Z,84.12
2018-10-11T07:48:08.728Z,84.37
2018-10-11T07:50:38.504Z,85.12
2018-10-11T07:53:08.298Z,82.78
2018-10-11T07:55:38.141Z,82.81
2018-10-11T07:58:07.865Z,80.17
2018-10-11T08:00:37.854Z,80.51
2018-10-11T08:03:07.557Z,81.65
2018-10-11T08:05:37.271Z,80.82
2018-10-11T08:08:07.028Z,79.99
2018-10-11T08:10:37.086Z,79.57
2018-10-11T08:13:06.867Z,79.13
2018-10-11T08:15:37.382Z,79.29
2018-10-11T08:18:07.420Z,80.18
2018-10-11T08:20:37.135Z,79.16
2018-10-11T08:23:06.762Z,77.05
2018-10-11T08:25:37.296Z,78.32
2018-10-11T08:28:06.823Z,78.16
2018-10-11T08:30:36.830Z,77.75
2018-10-11T08:33:06.662Z,77.56
2018-10-11T08:35:36.315Z,76.82
2018-10-11T08:38:06.220Z,77.13
2018-10-11T08:40:35.685Z,76.86
2018-10-11T08:43:05.395Z,76.36
2018-10-11T08:45:35.098Z,75.87
2018-10-11T08:48:05.399Z,76.54
2018-10-11T08:50:35.307Z,75.83
2018-10-11T08:53:05.039Z,74.81
2018-10-11T08:55:34.728Z,73.36
2018-10-11T08:58:04.288Z,74.30
2018-10-11T09:00:33.915Z,73.93
2018-10-11T09:03:04.028Z,72.62
2018-10-11T09:05:33.668Z,73.18
2018-10-11T09:08:03.335Z,74.74
2018-10-11T09:10:38.344Z,74.42
2018-10-11T09:13:02.999Z,75.48
2018-10-11T09:15:32.710Z,73.38
2018-10-11T09:18:02.436Z,71.99
2018-10-11T09:20:32.066Z,71.39
2018-10-11T09:23:02.514Z,71.28
2018-10-11T09:25:32.619Z,70.64
2018-10-11T09:28:02.343Z,70.46
2018-10-11T09:30:32.001Z,70.14
2018-10-11T09:33:01.665Z,70.21
2018-10-11T09:35:31.319Z,70.25
2018-10-11T09:38:01.022Z,71.10
2018-10-11T09:40:31.383Z,70.85
2018-10-11T09:43:01.180Z,69.31
2018-10-11T09:45:30.764Z,69.17
2018-10-11T09:48:00.961Z,69.68
2018-10-11T09:50:30.945Z,68.12
2018-10-11T09:53:00.930Z,67.83
2018-10-11T09:55:30.653Z,67.22
2018-10-11T09:58:00.510Z,68.22
2018-10-11T10:00:34.290Z,67.24
2018-10-11T10:03:04.318Z,68.35
2018-10-11T10:05:34.052Z,67.05
2018-10-11T10:08:03.745Z,67.93
2018-10-11T10:10:33.372Z,68.47
2018-10-11T10:13:03.301Z,66.45
2018-10-11T10:15:33.420Z,66.44
2018-10-11T10:18:03.164Z,63.67
2018-10-11T10:20:32.748Z,67.84
2018-10-11T10:23:02.921Z,65.92
2018-10-11T10:25:32.951Z,65.46
2018-10-11T10:28:02.688Z,65.46
2018-10-11T10:30:37.444Z,65.23
2018-10-11T10:33:07.118Z,65.02
2018-10-11T10:35:36.747Z,62.55
2018-10-11T10:38:06.382Z,62.44
2018-10-11T10:40:36.051Z,63.80
2018-10-11T10:43:06.130Z,62.30
2018-10-11T10:45:35.771Z,63.03
2018-10-11T10:48:05.510Z,61.20
2018-10-11T10:50:35.913Z,62.38
2018-10-11T10:53:05.708Z,60.45
2018-10-11T10:55:36.403Z,59.92
2018-10-11T10:58:06.387Z,58.76
2018-10-11T11:00:36.699Z,59.77
2018-10-11T11:03:06.336Z,60.64
2018-10-11T11:05:36.019Z,56.68
2018-10-11T11:08:05.743Z,58.69
2018-10-11T11:10:35.382Z,58.51
2018-10-11T11:13:05.170Z,57.28
2018-10-11T11:15:34.738Z,60.00
2018-10-11T11:18:04.449Z,58.79
2018-10-11T11:20:34.090Z,59.53
2018-10-11T11:23:04.863Z,59.38
2018-10-11T11:25:34.574Z,58.83
2018-10-11T11:28:04.240Z,59.60
2018-10-11T11:30:33.838Z,60.18
2018-10-11T11:33:03.462Z,58.15
2018-10-11T11:35:34.065Z,58.96
2018-10-11T11:38:03.965Z,57.58
2018-10-11T11:40:33.620Z,57.84
2018-10-11T11:43:03.266Z,55.54
2018-10-11T11:45:32.888Z,57.58
2018-10-11T11:48:03.040Z,56.93
2018-10-11T11:50:33.366Z,53.34
2018-10-11T11:53:02.976Z,54.20
2018-10-11T11:55:32.672Z,52.97
2018-10-11T11:58:02.326Z,53.89
2018-10-11T12:00:32.404Z,52.93
2018-10-11T12:03:02.731Z,56.55
2018-10-11T12:05:32.472Z,52.00
2018-10-11T12:08:02.100Z,55.98
2018-10-11T12:10:32.144Z,56.87
2018-10-11T12:13:03.475Z,54.72
2018-10-11T12:15:33.711Z,56.49
2018-10-11T12:18:05.081Z,54.91
2018-10-11T12:20:36.388Z,57.86
2018-10-11T12:23:07.341Z,58.89
2018-10-11T12:25:37.360Z,55.65
2018-10-11T12:28:11.954Z,56.38
2018-10-11T12:30:41.621Z,55.94
2018-10-11T12:33:11.259Z,55.69
2018-10-11T12:35:41.003Z,55.14
2018-10-11T12:38:10.607Z,56.41
2018-10-11T12:40:40.323Z,56.12
2018-10-11T12:43:10.007Z,56.00
2018-10-11T12:45:40.803Z,57.61
2018-10-11T12:48:11.094Z,55.38
2018-10-11T12:50:41.671Z,55.40
2018-10-11T12:53:11.783Z,54.61
2018-10-11T12:55:41.756Z,54.29
2018-10-11T12:58:11.409Z,53.46
2018-10-11T13:00:41.078Z,55.43
2018-10-11T13:03:11.666Z,54.10
2018-10-11T13:05:41.422Z,54.29
2018-10-11T13:08:11.031Z,55.24
2018-10-11T13:10:40.711Z,53.70
2018-10-11T13:13:10.421Z,53.94
2018-10-11T13:15:39.985Z,51.69
2018-10-11T13:18:09.638Z,54.05
2018-10-11T13:20:39.859Z,53.66
2018-10-11T13:23:13.278Z,53.03
2018-10-11T13:25:39.905Z,53.70
2018-10-11T13:28:09.604Z,54.00
2018-10-11T13:30:40.188Z,52.93
2018-10-11T13:33:10.391Z,53.52
2018-10-11T13:35:40.176Z,50.45
2018-10-11T13:38:10.919Z,50.37
2018-10-11T13:40:40.763Z,52.29
2018-10-11T13:43:10.730Z,51.81
2018-10-11T13:45:40.378Z,51.29
2018-10-11T13:48:10.023Z,52.04
2018-10-11T13:50:39.678Z,51.73
2018-10-11T13:53:09.378Z,50.40
2018-10-11T13:55:38.943Z,50.37
2018-10-11T13:58:08.640Z,50.73
2018-10-11T14:00:39.010Z,51.25
2018-10-11T14:03:09.039Z,50.54
2018-10-11T14:05:39.528Z,51.66
2018-10-11T14:08:09.207Z,52.22
2018-10-11T14:10:40.031Z,50.87
2018-10-11T14:13:15.091Z,50.43
2018-10-11T14:15:40.066Z,50.01
2018-10-11T14:18:11.911Z,51.05
2018-10-11T14:20:39.359Z,51.56
2018-10-11T14:23:09.102Z,50.93
2018-10-11T14:25:38.709Z,50.25
2018-10-11T14:28:20.463Z,50.20
2018-10-11T14:30:50.150Z,50.20
2018-10-11T14:33:20.253Z,49.46
2018-10-11T14:35:55.002Z,50.02
2018-10-11T14:38:26.706Z,49.67
2018-10-11T14:40:57.532Z,49.51
2018-10-11T14:43:27.336Z,51.44
2018-10-11T14:45:56.960Z,51.43
2018-10-11T14:48:27.741Z,50.18
2018-10-11T14:51:04.163Z,51.10
2018-10-11T14:53:33.878Z,52.48
2018-10-11T14:56:07.971Z,52.23
2018-10-11T14:58:37.617Z,53.76
2018-10-11T15:01:07.403Z,54.57
2018-10-11T15:03:38.152Z,55.00
2018-10-11T15:06:08.339Z,53.73
2018-10-11T15:08:39.020Z,55.71
2018-10-11T15:11:12.849Z,56.29
2018-10-11T15:13:42.967Z,55.50
2018-10-11T15:16:12.658Z,55.54
2018-10-11T15:18:42.295Z,55.56
2018-10-11T15:21:11.960Z,56.87
2018-10-11T15:23:41.676Z,56.32
2018-10-11T15:26:13.045Z,56.15
2018-10-11T15:28:59.503Z,57.04
2018-10-11T15:31:29.193Z,57.30
2018-10-11T15:33:58.906Z,57.03
2018-10-11T15:36:28.633Z,56.96
2018-10-11T15:38:58.356Z,57.80
2018-10-11T15:41:29.236Z,57.80
2018-10-11T15:43:58.951Z,58.52
2018-10-11T15:46:28.694Z,58.59
2018-10-11T15:48:58.883Z,58.18
2018-10-11T15:51:28.650Z,56.50
2018-10-11T15:53:58.441Z,56.71
2018-10-11T15:56:28.255Z,56.59
2018-10-11T15:58:58.075Z,56.49
2018-10-11T16:01:27.922Z,57.40
2018-10-11T16:03:57.820Z,58.46
2018-10-11T16:06:27.967Z,58.80
2018-10-11T16:08:58.571Z,59.58
2018-10-11T16:11:28.607Z,59.53
2018-10-11T16:13:58.721Z,60.32
2018-10-11T16:16:28.496Z,59.81
2018-10-11T16:18:58.285Z,60.63
2018-10-11T16:21:28.159Z,60.64
2018-10-11T16:23:58.069Z,59.90
2018-10-11T16:26:28.247Z,59.25
2018-10-11T16:28:58.107Z,58.25
2018-10-11T16:31:29.016Z,57.81
2018-10-11T16:33:58.986Z,57.94
2018-10-11T16:36:28.717Z,58.46
2018-10-11T16:38:58.430Z,58.81
2018-10-11T16:41:29.044Z,59.41
2018-10-11T16:43:59.015Z,58.80
2018-10-11T16:46:28.775Z,58.83
2018-10-11T16:48:58.613Z,59.50
2018-10-11T16:51:30.103Z,58.06
2018-10-11T16:54:08.460Z,58.69
2018-10-11T16:56:38.408Z,59.55
2018-10-11T16:59:09.706Z,58.99
2018-10-11T17:01:39.512Z,59.43
2018-10-11T17:04:09.496Z,59.62
2018-10-11T17:06:39.365Z,59.42
2018-10-11T17:09:11.079Z,59.32
2018-10-11T17:11:41.357Z,59.11
2018-10-11T17:14:11.103Z,59.59
2018-10-11T17:16:41.021Z,60.09
2018-10-11T17:19:10.824Z,61.48
2018-10-11T17:21:40.830Z,60.89
2018-10-11T17:24:10.543Z,61.12
2018-10-11T17:26:41.084Z,62.14
2018-10-11T17:29:10.886Z,60.93
2018-10-11T17:31:40.775Z,60.50
2018-10-11T17:34:10.717Z,60.63
2018-10-11T17:36:40.609Z,60.96
2018-10-11T17:39:11.746Z,60.75
2018-10-11T17:41:41.688Z,61.05
2018-10-11T17:44:14.222Z,60.68
2018-10-11T17:46:44.087Z,60.94
2018-10-11T17:49:14.416Z,60.45
2018-10-11T17:51:44.155Z,61.18
2018-10-11T17:54:14.197Z,61.53
2018-10-11T17:56:43.967Z,60.91
2018-10-11T17:59:13.792Z,60.88
2018-10-11T18:01:44.253Z,61.11
2018-10-11T18:04:18.343Z,59.95
2018-10-11T18:06:51.233Z,59.45
2018-10-11T18:09:21.129Z,60.43
2018-10-11T18:11:50.988Z,60.79
2018-10-11T18:14:21.030Z,60.30
2018-10-11T18:16:50.763Z,60.33
2018-10-11T18:19:20.435Z,60.18
2018-10-11T18:21:50.132Z,60.84
2018-10-11T18:24:25.844Z,61.28
2018-10-11T18:26:55.604Z,60.83
2018-10-11T18:29:25.768Z,60.73
2018-10-11T18:31:55.644Z,61.00
2018-10-11T18:34:26.873Z,61.49
2018-10-11T18:36:56.815Z,61.88
2018-10-11T18:39:26.640Z,61.10
2018-10-11T18:41:56.386Z,60.67
2018-10-11T18:44:26.354Z,61.20
2018-10-11T18:46:56.340Z,62.32
2018-10-11T18:49:27.354Z,61.93
2018-10-11T18:51:57.143Z,62.15
2018-10-11T18:54:27.158Z,62.96
2018-10-11T18:56:56.940Z,62.19
2018-10-11T18:59:27.155Z,61.74
2018-10-11T19:01:56.909Z,61.74
2018-10-11T19:04:27.350Z,62.10
2018-10-11T19:06:57.276Z,61.74
2018-10-11T19:09:30.771Z,62.46
2018-10-11T19:12:00.490Z,63.14
2018-10-11T19:14:30.500Z,63.38
2018-10-11T19:17:00.240Z,63.60
2018-10-11T19:19:29.998Z,63.78
2018-10-11T19:22:00.749Z,65.94
2018-10-11T19:24:30.395Z,65.18
2018-10-11T19:27:01.939Z,64.45
2018-10-11T19:29:32.899Z,65.34
2018-10-11T19:32:02.845Z,64.74
2018-10-11T19:34:32.787Z,65.77
2018-10-11T19:37:02.580Z,65.31
2018-10-11T19:39:32.904Z,64.88
2018-10-11T19:42:04.216Z,65.14
2018-10-11T19:47:35.519Z,64.62
2018-10-11T19:50:05.356Z,65.11
2018-10-11T19:52:35.275Z,65.17
2018-10-11T19:55:05.157Z,64.53
2018-10-11T19:57:35.047Z,64.33
2018-10-11T20:00:05.280Z,64.97
2018-10-11T20:02:35.679Z,63.72
2018-10-11T20:05:05.960Z,63.08
2018-10-11T20:07:36.214Z,63.29
2018-10-11T20:10:06.112Z,63.35
2018-10-11T20:12:35.965Z,63.00
2018-10-11T20:15:05.952Z,63.45
2018-10-11T20:17:35.750Z,63.76
2018-10-11T20:20:06.132Z,64.15
2018-10-11T20:22:35.987Z,62.81
2018-10-11T20:25:06.199Z,62.46
2018-10-11T20:27:35.964Z,62.03
2018-10-11T20:30:06.085Z,63.18
2018-10-11T20:32:35.934Z,62.81
2018-10-11T20:35:05.980Z,63.61
2018-10-11T20:37:35.792Z,63.10
2018-10-11T20:40:06.056Z,62.55
2018-10-11T20:42:35.988Z,63.75
2018-10-11T20:45:05.929Z,62.92
2018-10-11T20:47:35.752Z,63.58
2018-10-11T20:50:06.492Z,62.82
2018-10-11T20:52:36.431Z,63.58
2018-10-11T20:55:06.660Z,63.25
2018-10-11T20:57:38.025Z,63.29
2018-10-11T21:00:09.212Z,63.73
2018-10-11T21:02:39.228Z,63.78
2018-10-11T21:05:09.155Z,63.64
2018-10-11T21:07:39.039Z,62.75
2018-10-11T21:10:15.193Z,62.88
2018-10-11T21:12:45.124Z,63.28
2018-10-11T21:15:15.610Z,62.54
2018-10-11T21:17:45.581Z,62.68
2018-10-11T21:20:15.589Z,62.46
2018-10-11T21:22:45.873Z,63.24
2018-10-11T21:25:16.303Z,62.67
2018-10-11T21:27:46.286Z,62.62
2018-10-11T21:30:16.207Z,63.10
2018-10-11T21:32:46.251Z,62.62
2018-10-11T21:35:16.245Z,62.72
2018-10-11T21:37:46.364Z,63.04
2018-10-11T21:40:23.312Z,62.77
2018-10-11T21:42:53.217Z,62.68
2018-10-11T21:45:23.040Z,62.58
2018-10-11T21:47:52.991Z,62.17
2018-10-11T21:50:22.808Z,63.31
2018-10-11T21:52:52.668Z,62.19
2018-10-11T21:55:22.438Z,62.71
2018-10-11T21:57:52.364Z,62.51
2018-10-11T22:00:26.210Z,63.04
2018-10-11T22:02:56.037Z,62.95
2018-10-11T22:05:25.824Z,63.12
2018-10-11T22:07:55.759Z,62.94
2018-10-11T22:10:25.936Z,62.67
2018-10-11T22:12:55.764Z,62.61
2018-10-11T22:15:25.994Z,63.08
2018-10-11T22:18:20.367Z,62.92
2018-10-11T22:20:50.286Z,63.45
2018-10-11T22:23:20.464Z,62.97
2018-10-11T22:25:50.241Z,63.56
2018-10-11T22:28:20.808Z,62.84
2018-10-11T22:30:50.683Z,63.11
2018-10-11T22:33:20.420Z,62.59
2018-10-11T22:35:50.260Z,62.61
2018-10-11T22:38:20.109Z,62.41
2018-10-11T22:40:50.063Z,62.12
2018-10-11T22:43:19.954Z,62.75
2018-10-11T22:45:49.800Z,63.86
2018-10-11T22:48:19.663Z,62.99
2018-10-11T22:50:49.462Z,62.30
2018-10-11T22:53:19.381Z,62.53
2018-10-11T22:55:49.778Z,62.60
2018-10-11T22:58:20.122Z,62.58
2018-10-11T23:00:50.488Z,62.77
2018-10-11T23:03:20.266Z,63.44
2018-10-11T23:05:50.064Z,63.14
2018-10-11T23:08:19.994Z,63.58
2018-10-11T23:10:50.334Z,62.89
2018-10-11T23:13:20.142Z,62.93
2018-10-11T23:15:50.465Z,62.80
2018-10-11T23:18:20.516Z,62.74
2018-10-11T23:20:50.308Z,62.49
2018-10-11T23:23:20.240Z,62.72
2018-10-11T23:25:50.382Z,62.85
2018-10-11T23:28:20.232Z,62.46
2018-10-11T23:30:50.037Z,62.40
2018-10-11T23:33:20.277Z,62.72
2018-10-11T23:35:50.515Z,62.62
2018-10-11T23:38:20.294Z,62.31
2018-10-11T23:40:50.595Z,63.35
2018-10-11T23:43:20.389Z,62.95
2018-10-11T23:45:50.113Z,63.42
2018-10-11T23:48:19.848Z,63.13
2018-10-11T23:50:50.043Z,63.72
2018-10-11T23:53:20.328Z,62.50
2018-10-11T23:55:50.712Z,63.04
2018-10-11T23:58:20.837Z,62.75
